Pagina principale
METAR-TAF:

METAR-TAF

Aeroporti :

San Gallo, Svizzera

latitudine: 47-29-06N, longitudine: 009-33-43E, altezza: 398 m

Osservazione

Il bollettino è stato emesso 35 minuti fa, alle 14:50 UTC
Vento 6 kt da nord, variando fra nord/nord-ovest e nord-est
Temperature 19°C
Umidità 40%
Pressione 1018 hPa
Visibilità 10 km o più

METAR: LSZR 311450Z AUTO 01006KT 330V040 9999 NCD 19/05 Q1018

Ora: 17:25 (15:25 UTC)

Previsione

Il bollettino è stato emesso 1 ora e 0 minuti fa, alle 14:25 UTC
Previsione valida dal 31 alle 15 UTC al 31 alle 24 UTC
Vento 6 kt da nord/nord-ovest
Visibilità 10 km o più
nessuna nube inferiore a 1500 m e nessun cumulonembo

TAF: LSZR 311425Z 3115/3124 33006KT CAVOK

Osservazioni e previsioni meteorologiche di più di 4000 aeroporti (messaggi METAR e TAF).

Le stazioni disponibili sono rappresentate dai dischi gialli e rossi sulla carta.

Puntare il mouse per vedere il nome della stazione.

Clicca sopra per visualizzare le osservazioni e previsioni meteorologiche.

Per cambiare la mappa : fare clic sui pulsanti verdi con una croce nera per ingrandire, il pulsante verde con un trattino per diminuire, o sulla freccia verde per le mappe adiacenti.


METAR-TAF: